Ruthin, United Kingdom
Current Conditions -  °F | °C
As of 12:50 PM on Saturday 20 Dec 2014 (Local Time) from EGNR Reporting Station
Scattered Clouds Scattered Clouds  
Wind Chill: 43°   Ceiling: Unl
Heat Index: 48°   Visibility: 6mi
Dew Point: 39°   Wind: 14mph
Humidity: 71%   Direction: 290°WNW
Pressure: 30.3"   Gusts: NA
Location:  53.11°N, 3.31°W
Report Text: EGNR 201250Z 29012KT 260V320 9999 SCT043 09/04 Q1026
Loading
Personal Weather Stations






























Interactive Weather Map New forecast layout! Learn more

10-Day Weather Forecast

Advertisements
Track Severe Weather on mobile